sensor_id;sensor_type;location;lat;lon;timestamp;P1;durP1;ratioP1;P2;durP2;ratioP2
31764;SDS011;18338;53.240;8.798;2023-10-13T00:02:10;31.08;;;17.15;;
31764;SDS011;18338;53.240;8.798;2023-10-13T00:04:37;28.80;;;17.35;;
31764;SDS011;18338;53.240;8.798;2023-10-13T00:07:03;28.13;;;17.60;;
31764;SDS011;18338;53.240;8.798;2023-10-13T00:09:34;30.33;;;17.33;;
31764;SDS011;18338;53.240;8.798;2023-10-13T00:12:05;27.30;;;16.50;;
31764;SDS011;18338;53.240;8.798;2023-10-13T00:14:36;29.98;;;17.85;;
31764;SDS011;18338;53.240;8.798;2023-10-13T00:17:07;31.40;;;18.40;;
31764;SDS011;18338;53.240;8.798;2023-10-13T00:19:35;35.58;;;17.50;;
31764;SDS011;18338;53.240;8.798;2023-10-13T00:22:21;30.83;;;17.60;;
31764;SDS011;18338;53.240;8.798;2023-10-13T00:24:49;31.23;;;17.35;;
31764;SDS011;18338;53.240;8.798;2023-10-13T00:27:18;32.05;;;18.48;;
31764;SDS011;18338;53.240;8.798;2023-10-13T00:30:03;29.58;;;17.52;;
31764;SDS011;18338;53.240;8.798;2023-10-13T00:32:44;32.42;;;17.42;;
31764;SDS011;18338;53.240;8.798;2023-10-13T00:35:17;28.63;;;17.33;;
31764;SDS011;18338;53.240;8.798;2023-10-13T00:38:03;23.80;;;15.90;;
31764;SDS011;18338;53.240;8.798;2023-10-13T00:40:41;31.85;;;18.02;;
31764;SDS011;18338;53.240;8.798;2023-10-13T00:43:10;30.85;;;18.83;;
31764;SDS011;18338;53.240;8.798;2023-10-13T00:48:24;42.10;;;20.63;;
31764;SDS011;18338;53.240;8.798;2023-10-13T00:50:56;32.72;;;18.48;;
31764;SDS011;18338;53.240;8.798;2023-10-13T00:53:25;32.85;;;19.05;;
31764;SDS011;18338;53.240;8.798;2023-10-13T00:55:52;32.53;;;18.88;;
31764;SDS011;18338;53.240;8.798;2023-10-13T00:58:22;32.60;;;19.08;;
31764;SDS011;18338;53.240;8.798;2023-10-13T01:00:51;34.92;;;20.23;;
31764;SDS011;18338;53.240;8.798;2023-10-13T01:03:44;35.72;;;20.42;;
31764;SDS011;18338;53.240;8.798;2023-10-13T01:06:15;33.58;;;21.05;;
31764;SDS011;18338;53.240;8.798;2023-10-13T01:08:46;36.90;;;21.17;;
31764;SDS011;18338;53.240;8.798;2023-10-13T01:11:20;36.75;;;20.30;;
31764;SDS011;18338;53.240;8.798;2023-10-13T01:13:50;33.28;;;19.80;;
31764;SDS011;18338;53.240;8.798;2023-10-13T01:16:20;37.03;;;21.20;;
31764;SDS011;18338;53.240;8.798;2023-10-13T01:18:50;42.55;;;21.60;;
31764;SDS011;18338;53.240;8.798;2023-10-13T01:21:16;40.75;;;21.50;;
31764;SDS011;18338;53.240;8.798;2023-10-13T01:23:47;37.50;;;20.70;;
31764;SDS011;18338;53.240;8.798;2023-10-13T01:26:14;40.92;;;22.85;;
31764;SDS011;18338;53.240;8.798;2023-10-13T01:28:50;39.60;;;22.98;;
31764;SDS011;18338;53.240;8.798;2023-10-13T01:31:17;38.92;;;21.75;;
31764;SDS011;18338;53.240;8.798;2023-10-13T01:33:53;43.83;;;23.73;;
31764;SDS011;18338;53.240;8.798;2023-10-13T01:36:21;39.35;;;21.73;;
31764;SDS011;18338;53.240;8.798;2023-10-13T01:38:48;45.80;;;24.42;;
31764;SDS011;18338;53.240;8.798;2023-10-13T01:41:22;47.58;;;25.73;;
31764;SDS011;18338;53.240;8.798;2023-10-13T01:43:48;44.72;;;25.10;;
31764;SDS011;18338;53.240;8.798;2023-10-13T01:46:15;49.17;;;24.95;;
31764;SDS011;18338;53.240;8.798;2023-10-13T01:48:45;48.60;;;25.33;;
31764;SDS011;18338;53.240;8.798;2023-10-13T01:51:12;41.60;;;24.83;;
31764;SDS011;18338;53.240;8.798;2023-10-13T01:53:40;45.58;;;25.85;;
31764;SDS011;18338;53.240;8.798;2023-10-13T01:56:10;40.85;;;24.63;;
31764;SDS011;18338;53.240;8.798;2023-10-13T01:58:37;52.17;;;27.83;;
31764;SDS011;18338;53.240;8.798;2023-10-13T02:01:10;54.92;;;28.48;;
31764;SDS011;18338;53.240;8.798;2023-10-13T02:03:37;50.75;;;27.70;;
31764;SDS011;18338;53.240;8.798;2023-10-13T02:06:14;56.03;;;28.92;;
31764;SDS011;18338;53.240;8.798;2023-10-13T02:08:49;55.25;;;31.10;;
31764;SDS011;18338;53.240;8.798;2023-10-13T02:11:23;58.78;;;30.33;;
31764;SDS011;18338;53.240;8.798;2023-10-13T02:13:49;61.08;;;31.50;;
31764;SDS011;18338;53.240;8.798;2023-10-13T02:16:17;62.92;;;32.90;;
31764;SDS011;18338;53.240;8.798;2023-10-13T02:18:48;62.05;;;32.85;;
31764;SDS011;18338;53.240;8.798;2023-10-13T02:21:20;58.50;;;31.52;;
31764;SDS011;18338;53.240;8.798;2023-10-13T02:23:47;57.38;;;32.15;;
31764;SDS011;18338;53.240;8.798;2023-10-13T02:26:26;60.28;;;32.17;;
31764;SDS011;18338;53.240;8.798;2023-10-13T02:29:01;57.63;;;33.33;;
31764;SDS011;18338;53.240;8.798;2023-10-13T02:31:37;57.33;;;32.28;;
31764;SDS011;18338;53.240;8.798;2023-10-13T02:34:05;61.28;;;33.03;;
31764;SDS011;18338;53.240;8.798;2023-10-13T02:36:37;58.65;;;33.13;;
31764;SDS011;18338;53.240;8.798;2023-10-13T02:39:15;60.15;;;31.98;;
31764;SDS011;18338;53.240;8.798;2023-10-13T02:41:42;56.55;;;32.45;;
31764;SDS011;18338;53.240;8.798;2023-10-13T02:44:14;55.97;;;30.52;;
31764;SDS011;18338;53.240;8.798;2023-10-13T02:46:54;58.22;;;33.63;;
31764;SDS011;18338;53.240;8.798;2023-10-13T02:49:23;58.05;;;32.22;;
31764;SDS011;18338;53.240;8.798;2023-10-13T02:51:53;57.15;;;32.92;;
31764;SDS011;18338;53.240;8.798;2023-10-13T02:54:25;59.20;;;31.50;;
31764;SDS011;18338;53.240;8.798;2023-10-13T02:56:57;60.60;;;32.92;;
31764;SDS011;18338;53.240;8.798;2023-10-13T02:59:30;58.83;;;32.70;;
31764;SDS011;18338;53.240;8.798;2023-10-13T03:02:01;58.33;;;33.65;;
31764;SDS011;18338;53.240;8.798;2023-10-13T03:04:39;60.08;;;32.92;;
31764;SDS011;18338;53.240;8.798;2023-10-13T03:07:06;58.50;;;34.63;;
31764;SDS011;18338;53.240;8.798;2023-10-13T03:09:32;58.83;;;34.58;;
31764;SDS011;18338;53.240;8.798;2023-10-13T03:12:03;59.92;;;34.30;;
31764;SDS011;18338;53.240;8.798;2023-10-13T03:14:30;64.78;;;35.00;;
31764;SDS011;18338;53.240;8.798;2023-10-13T03:16:58;57.15;;;34.00;;
31764;SDS011;18338;53.240;8.798;2023-10-13T03:19:32;63.08;;;35.50;;
31764;SDS011;18338;53.240;8.798;2023-10-13T03:22:00;64.10;;;35.40;;
31764;SDS011;18338;53.240;8.798;2023-10-13T03:24:36;61.60;;;36.08;;
31764;SDS011;18338;53.240;8.798;2023-10-13T03:27:08;64.22;;;36.13;;
31764;SDS011;18338;53.240;8.798;2023-10-13T03:29:35;68.05;;;36.55;;
31764;SDS011;18338;53.240;8.798;2023-10-13T03:32:03;63.85;;;37.55;;
31764;SDS011;18338;53.240;8.798;2023-10-13T03:34:40;69.47;;;37.65;;
31764;SDS011;18338;53.240;8.798;2023-10-13T03:37:18;61.85;;;36.25;;
31764;SDS011;18338;53.240;8.798;2023-10-13T03:40:02;63.28;;;36.40;;
31764;SDS011;18338;53.240;8.798;2023-10-13T03:42:54;66.50;;;36.90;;
31764;SDS011;18338;53.240;8.798;2023-10-13T03:48:14;63.83;;;36.85;;
31764;SDS011;18338;53.240;8.798;2023-10-13T03:50:56;71.65;;;37.17;;
31764;SDS011;18338;53.240;8.798;2023-10-13T03:53:32;66.50;;;36.83;;
31764;SDS011;18338;53.240;8.798;2023-10-13T03:56:03;64.53;;;37.08;;
31764;SDS011;18338;53.240;8.798;2023-10-13T03:58:57;67.22;;;37.10;;
31764;SDS011;18338;53.240;8.798;2023-10-13T04:01:27;67.25;;;37.55;;
31764;SDS011;18338;53.240;8.798;2023-10-13T04:04:24;63.55;;;37.05;;
31764;SDS011;18338;53.240;8.798;2023-10-13T04:06:57;63.85;;;36.58;;
31764;SDS011;18338;53.240;8.798;2023-10-13T04:09:46;61.13;;;35.40;;
31764;SDS011;18338;53.240;8.798;2023-10-13T04:12:13;60.17;;;35.55;;
31764;SDS011;18338;53.240;8.798;2023-10-13T04:14:43;58.83;;;33.80;;
31764;SDS011;18338;53.240;8.798;2023-10-13T04:17:29;56.95;;;35.17;;
31764;SDS011;18338;53.240;8.798;2023-10-13T04:20:00;58.72;;;34.30;;
31764;SDS011;18338;53.240;8.798;2023-10-13T04:22:33;59.55;;;33.53;;
31764;SDS011;18338;53.240;8.798;2023-10-13T04:25:16;51.67;;;32.67;;
31764;SDS011;18338;53.240;8.798;2023-10-13T04:28:03;57.63;;;32.42;;
31764;SDS011;18338;53.240;8.798;2023-10-13T04:30:41;51.85;;;32.13;;
31764;SDS011;18338;53.240;8.798;2023-10-13T04:36:05;51.83;;;31.48;;
31764;SDS011;18338;53.240;8.798;2023-10-13T04:38:55;49.80;;;29.75;;
31764;SDS011;18338;53.240;8.798;2023-10-13T04:41:33;52.60;;;31.73;;
31764;SDS011;18338;53.240;8.798;2023-10-13T04:44:16;54.78;;;32.45;;
31764;SDS011;18338;53.240;8.798;2023-10-13T04:46:56;52.40;;;31.60;;
31764;SDS011;18338;53.240;8.798;2023-10-13T04:49:30;55.22;;;31.35;;
31764;SDS011;18338;53.240;8.798;2023-10-13T04:52:01;52.67;;;31.33;;
31764;SDS011;18338;53.240;8.798;2023-10-13T04:54:36;61.40;;;33.78;;
31764;SDS011;18338;53.240;8.798;2023-10-13T04:59:47;55.03;;;32.70;;
31764;SDS011;18338;53.240;8.798;2023-10-13T05:02:30;54.50;;;33.58;;
31764;SDS011;18338;53.240;8.798;2023-10-13T05:07:52;54.53;;;32.92;;
31764;SDS011;18338;53.240;8.798;2023-10-13T05:10:37;57.28;;;32.55;;
31764;SDS011;18338;53.240;8.798;2023-10-13T05:13:23;53.03;;;31.55;;
31764;SDS011;18338;53.240;8.798;2023-10-13T05:16:08;51.75;;;32.08;;
31764;SDS011;18338;53.240;8.798;2023-10-13T05:18:54;53.58;;;31.60;;
31764;SDS011;18338;53.240;8.798;2023-10-13T05:21:40;54.15;;;31.52;;
31764;SDS011;18338;53.240;8.798;2023-10-13T05:24:25;54.95;;;32.75;;
31764;SDS011;18338;53.240;8.798;2023-10-13T05:27:10;54.97;;;32.25;;
31764;SDS011;18338;53.240;8.798;2023-10-13T05:29:56;52.50;;;31.70;;
31764;SDS011;18338;53.240;8.798;2023-10-13T05:32:41;53.78;;;32.25;;
31764;SDS011;18338;53.240;8.798;2023-10-13T05:35:27;52.70;;;30.92;;
31764;SDS011;18338;53.240;8.798;2023-10-13T05:38:12;53.17;;;31.90;;
31764;SDS011;18338;53.240;8.798;2023-10-13T05:41:01;53.45;;;30.52;;
31764;SDS011;18338;53.240;8.798;2023-10-13T05:43:51;50.75;;;31.00;;
31764;SDS011;18338;53.240;8.798;2023-10-13T05:46:37;53.53;;;31.67;;
31764;SDS011;18338;53.240;8.798;2023-10-13T05:49:08;49.75;;;30.10;;
31764;SDS011;18338;53.240;8.798;2023-10-13T05:51:35;55.15;;;31.75;;
31764;SDS011;18338;53.240;8.798;2023-10-13T05:54:02;54.90;;;32.42;;
31764;SDS011;18338;53.240;8.798;2023-10-13T05:56:35;47.30;;;29.65;;
31764;SDS011;18338;53.240;8.798;2023-10-13T05:59:21;53.08;;;31.67;;
31764;SDS011;18338;53.240;8.798;2023-10-13T06:02:06;48.90;;;29.85;;
31764;SDS011;18338;53.240;8.798;2023-10-13T06:04:52;50.17;;;30.33;;
31764;SDS011;18338;53.240;8.798;2023-10-13T06:07:39;48.67;;;29.83;;
31764;SDS011;18338;53.240;8.798;2023-10-13T06:10:25;45.08;;;28.95;;
31764;SDS011;18338;53.240;8.798;2023-10-13T06:13:10;44.08;;;29.55;;
31764;SDS011;18338;53.240;8.798;2023-10-13T06:15:56;43.50;;;28.80;;
31764;SDS011;18338;53.240;8.798;2023-10-13T06:18:42;48.15;;;28.75;;
31764;SDS011;18338;53.240;8.798;2023-10-13T06:21:27;43.88;;;28.70;;
31764;SDS011;18338;53.240;8.798;2023-10-13T06:24:13;42.05;;;28.08;;
31764;SDS011;18338;53.240;8.798;2023-10-13T06:26:58;43.83;;;28.08;;
31764;SDS011;18338;53.240;8.798;2023-10-13T06:29:44;43.65;;;27.92;;
31764;SDS011;18338;53.240;8.798;2023-10-13T06:32:12;46.05;;;29.40;;
31764;SDS011;18338;53.240;8.798;2023-10-13T06:34:40;45.53;;;28.92;;
31764;SDS011;18338;53.240;8.798;2023-10-13T06:37:14;40.97;;;28.08;;
31764;SDS011;18338;53.240;8.798;2023-10-13T06:39:57;40.80;;;27.92;;
31764;SDS011;18338;53.240;8.798;2023-10-13T06:42:33;45.58;;;29.05;;
31764;SDS011;18338;53.240;8.798;2023-10-13T06:45:09;41.90;;;28.00;;
31764;SDS011;18338;53.240;8.798;2023-10-13T06:47:38;41.08;;;27.55;;
31764;SDS011;18338;53.240;8.798;2023-10-13T06:50:11;41.88;;;28.23;;
31764;SDS011;18338;53.240;8.798;2023-10-13T06:52:51;40.47;;;27.83;;
31764;SDS011;18338;53.240;8.798;2023-10-13T06:55:21;40.70;;;27.67;;
31764;SDS011;18338;53.240;8.798;2023-10-13T06:58:01;42.83;;;28.27;;
31764;SDS011;18338;53.240;8.798;2023-10-13T07:00:28;43.83;;;27.55;;
31764;SDS011;18338;53.240;8.798;2023-10-13T07:03:01;35.70;;;25.17;;
31764;SDS011;18338;53.240;8.798;2023-10-13T07:05:44;37.92;;;25.77;;
31764;SDS011;18338;53.240;8.798;2023-10-13T07:08:15;38.35;;;25.58;;
31764;SDS011;18338;53.240;8.798;2023-10-13T07:10:50;32.97;;;24.75;;
31764;SDS011;18338;53.240;8.798;2023-10-13T07:13:28;35.38;;;25.15;;
31764;SDS011;18338;53.240;8.798;2023-10-13T07:15:55;35.33;;;25.27;;
31764;SDS011;18338;53.240;8.798;2023-10-13T07:18:42;37.65;;;25.90;;
31764;SDS011;18338;53.240;8.798;2023-10-13T07:21:16;33.97;;;24.60;;
31764;SDS011;18338;53.240;8.798;2023-10-13T07:23:42;36.33;;;25.58;;
31764;SDS011;18338;53.240;8.798;2023-10-13T07:26:26;35.22;;;24.88;;
31764;SDS011;18338;53.240;8.798;2023-10-13T07:28:55;31.80;;;24.08;;
31764;SDS011;18338;53.240;8.798;2023-10-13T07:31:21;34.33;;;25.00;;
31764;SDS011;18338;53.240;8.798;2023-10-13T07:33:53;34.05;;;24.95;;
31764;SDS011;18338;53.240;8.798;2023-10-13T07:36:30;35.75;;;25.38;;
31764;SDS011;18338;53.240;8.798;2023-10-13T07:39:05;36.22;;;25.33;;
31764;SDS011;18338;53.240;8.798;2023-10-13T07:41:51;32.03;;;24.98;;
31764;SDS011;18338;53.240;8.798;2023-10-13T07:44:32;33.42;;;26.17;;
31764;SDS011;18338;53.240;8.798;2023-10-13T07:47:00;38.08;;;26.95;;
31764;SDS011;18338;53.240;8.798;2023-10-13T07:49:40;35.17;;;26.92;;
31764;SDS011;18338;53.240;8.798;2023-10-13T07:52:09;36.10;;;27.55;;
31764;SDS011;18338;53.240;8.798;2023-10-13T07:54:47;39.17;;;27.17;;
31764;SDS011;18338;53.240;8.798;2023-10-13T07:57:33;35.85;;;27.10;;
31764;SDS011;18338;53.240;8.798;2023-10-13T08:00:00;34.13;;;26.38;;
31764;SDS011;18338;53.240;8.798;2023-10-13T08:02:58;35.20;;;26.25;;
31764;SDS011;18338;53.240;8.798;2023-10-13T08:05:45;33.63;;;25.65;;
31764;SDS011;18338;53.240;8.798;2023-10-13T08:08:47;29.27;;;23.02;;
31764;SDS011;18338;53.240;8.798;2023-10-13T08:11:20;31.70;;;24.05;;
31764;SDS011;18338;53.240;8.798;2023-10-13T08:13:57;25.85;;;20.98;;
31764;SDS011;18338;53.240;8.798;2023-10-13T08:16:40;26.58;;;21.60;;
31764;SDS011;18338;53.240;8.798;2023-10-13T08:19:27;24.52;;;21.27;;
31764;SDS011;18338;53.240;8.798;2023-10-13T08:22:06;23.77;;;19.77;;
31764;SDS011;18338;53.240;8.798;2023-10-13T08:24:50;23.55;;;20.30;;
31764;SDS011;18338;53.240;8.798;2023-10-13T08:27:18;23.13;;;18.88;;
31764;SDS011;18338;53.240;8.798;2023-10-13T08:30:12;19.02;;;17.10;;
31764;SDS011;18338;53.240;8.798;2023-10-13T08:32:57;20.02;;;16.83;;
31764;SDS011;18338;53.240;8.798;2023-10-13T08:35:26;20.20;;;16.90;;
31764;SDS011;18338;53.240;8.798;2023-10-13T08:37:56;17.38;;;15.57;;
31764;SDS011;18338;53.240;8.798;2023-10-13T08:40:36;15.90;;;14.20;;
31764;SDS011;18338;53.240;8.798;2023-10-13T08:43:31;15.25;;;12.85;;
31764;SDS011;18338;53.240;8.798;2023-10-13T08:46:11;14.50;;;12.95;;
31764;SDS011;18338;53.240;8.798;2023-10-13T08:48:52;13.07;;;11.82;;
31764;SDS011;18338;53.240;8.798;2023-10-13T08:51:41;13.35;;;9.82;;
31764;SDS011;18338;53.240;8.798;2023-10-13T08:54:13;9.90;;;7.93;;
31764;SDS011;18338;53.240;8.798;2023-10-13T08:57:01;9.55;;;7.43;;
31764;SDS011;18338;53.240;8.798;2023-10-13T08:59:59;8.20;;;7.20;;
31764;SDS011;18338;53.240;8.798;2023-10-13T09:02:45;9.38;;;6.63;;
31764;SDS011;18338;53.240;8.798;2023-10-13T09:05:31;10.32;;;7.28;;
31764;SDS011;18338;53.240;8.798;2023-10-13T09:08:27;12.40;;;6.70;;
31764;SDS011;18338;53.240;8.798;2023-10-13T09:11:13;8.65;;;7.15;;
31764;SDS011;18338;53.240;8.798;2023-10-13T09:13:40;10.55;;;7.13;;
31764;SDS011;18338;53.240;8.798;2023-10-13T09:16:11;9.48;;;7.57;;
31764;SDS011;18338;53.240;8.798;2023-10-13T09:18:44;11.32;;;7.55;;
31764;SDS011;18338;53.240;8.798;2023-10-13T09:21:16;8.77;;;7.35;;
31764;SDS011;18338;53.240;8.798;2023-10-13T09:24:03;9.23;;;7.35;;
31764;SDS011;18338;53.240;8.798;2023-10-13T09:26:53;8.73;;;7.30;;
31764;SDS011;18338;53.240;8.798;2023-10-13T09:29:21;9.00;;;7.13;;
31764;SDS011;18338;53.240;8.798;2023-10-13T09:32:00;10.80;;;8.38;;
31764;SDS011;18338;53.240;8.798;2023-10-13T09:34:30;9.70;;;7.93;;
31764;SDS011;18338;53.240;8.798;2023-10-13T09:37:01;10.38;;;7.55;;
31764;SDS011;18338;53.240;8.798;2023-10-13T09:39:31;11.90;;;8.70;;
31764;SDS011;18338;53.240;8.798;2023-10-13T09:42:14;9.90;;;7.90;;
31764;SDS011;18338;53.240;8.798;2023-10-13T09:44:44;10.73;;;7.95;;
31764;SDS011;18338;53.240;8.798;2023-10-13T09:47:22;15.65;;;10.38;;
31764;SDS011;18338;53.240;8.798;2023-10-13T09:50:00;11.85;;;8.93;;
31764;SDS011;18338;53.240;8.798;2023-10-13T09:52:31;10.93;;;9.10;;
31764;SDS011;18338;53.240;8.798;2023-10-13T09:55:00;11.93;;;7.97;;
31764;SDS011;18338;53.240;8.798;2023-10-13T09:57:41;10.40;;;8.30;;
31764;SDS011;18338;53.240;8.798;2023-10-13T10:00:12;10.23;;;8.13;;
31764;SDS011;18338;53.240;8.798;2023-10-13T10:02:59;12.10;;;8.02;;
31764;SDS011;18338;53.240;8.798;2023-10-13T10:05:59;7.97;;;6.97;;
31764;SDS011;18338;53.240;8.798;2023-10-13T10:08:34;9.93;;;7.10;;
31764;SDS011;18338;53.240;8.798;2023-10-13T10:16:14;6.57;;;5.85;;
31764;SDS011;18338;53.240;8.798;2023-10-13T10:18:46;6.38;;;5.78;;
31764;SDS011;18338;53.240;8.798;2023-10-13T10:21:12;8.32;;;6.18;;
31764;SDS011;18338;53.240;8.798;2023-10-13T10:23:41;9.18;;;6.20;;
31764;SDS011;18338;53.240;8.798;2023-10-13T10:26:19;7.18;;;6.13;;
31764;SDS011;18338;53.240;8.798;2023-10-13T10:28:46;7.43;;;5.55;;
31764;SDS011;18338;53.240;8.798;2023-10-13T10:31:14;7.10;;;6.05;;
31764;SDS011;18338;53.240;8.798;2023-10-13T10:33:46;6.45;;;5.18;;
31764;SDS011;18338;53.240;8.798;2023-10-13T10:36:16;5.82;;;4.63;;
31764;SDS011;18338;53.240;8.798;2023-10-13T10:38:54;6.35;;;4.68;;
31764;SDS011;18338;53.240;8.798;2023-10-13T10:41:26;7.95;;;4.90;;
31764;SDS011;18338;53.240;8.798;2023-10-13T10:44:11;7.35;;;5.50;;
31764;SDS011;18338;53.240;8.798;2023-10-13T10:46:57;7.55;;;5.90;;
31764;SDS011;18338;53.240;8.798;2023-10-13T10:49:38;7.85;;;6.38;;
31764;SDS011;18338;53.240;8.798;2023-10-13T10:52:05;10.52;;;7.03;;
31764;SDS011;18338;53.240;8.798;2023-10-13T10:54:40;8.10;;;7.40;;
31764;SDS011;18338;53.240;8.798;2023-10-13T10:57:11;11.23;;;7.70;;
31764;SDS011;18338;53.240;8.798;2023-10-13T10:59:46;8.88;;;7.97;;
31764;SDS011;18338;53.240;8.798;2023-10-13T11:02:18;10.52;;;8.35;;
31764;SDS011;18338;53.240;8.798;2023-10-13T11:04:53;9.30;;;7.55;;
31764;SDS011;18338;53.240;8.798;2023-10-13T11:07:25;8.35;;;7.13;;
31764;SDS011;18338;53.240;8.798;2023-10-13T11:09:54;7.68;;;6.95;;
31764;SDS011;18338;53.240;8.798;2023-10-13T11:12:33;9.85;;;6.82;;
31764;SDS011;18338;53.240;8.798;2023-10-13T11:15:04;9.73;;;6.22;;
31764;SDS011;18338;53.240;8.798;2023-10-13T11:17:48;10.02;;;6.47;;
31764;SDS011;18338;53.240;8.798;2023-10-13T11:20:18;9.93;;;6.50;;
31764;SDS011;18338;53.240;8.798;2023-10-13T11:23:00;10.63;;;5.45;;
31764;SDS011;18338;53.240;8.798;2023-10-13T11:25:31;10.98;;;5.60;;
31764;SDS011;18338;53.240;8.798;2023-10-13T11:28:11;9.73;;;5.32;;
31764;SDS011;18338;53.240;8.798;2023-10-13T11:30:54;8.73;;;5.68;;
31764;SDS011;18338;53.240;8.798;2023-10-13T11:33:26;8.55;;;5.35;;
31764;SDS011;18338;53.240;8.798;2023-10-13T11:35:57;7.78;;;4.82;;
31764;SDS011;18338;53.240;8.798;2023-10-13T11:38:30;8.70;;;5.25;;
31764;SDS011;18338;53.240;8.798;2023-10-13T11:41:10;5.78;;;4.75;;
31764;SDS011;18338;53.240;8.798;2023-10-13T11:43:48;9.00;;;4.88;;
31764;SDS011;18338;53.240;8.798;2023-10-13T11:46:23;5.53;;;4.97;;
31764;SDS011;18338;53.240;8.798;2023-10-13T11:49:05;10.02;;;4.95;;
31764;SDS011;18338;53.240;8.798;2023-10-13T11:51:42;7.40;;;5.10;;
31764;SDS011;18338;53.240;8.798;2023-10-13T11:54:17;8.48;;;4.53;;
31764;SDS011;18338;53.240;8.798;2023-10-13T11:56:46;10.52;;;4.80;;
31764;SDS011;18338;53.240;8.798;2023-10-13T11:59:13;9.05;;;5.10;;
31764;SDS011;18338;53.240;8.798;2023-10-13T12:01:51;7.63;;;4.32;;
31764;SDS011;18338;53.240;8.798;2023-10-13T12:04:37;10.80;;;4.72;;
31764;SDS011;18338;53.240;8.798;2023-10-13T12:07:18;10.05;;;4.32;;
31764;SDS011;18338;53.240;8.798;2023-10-13T12:10:04;8.45;;;4.25;;
31764;SDS011;18338;53.240;8.798;2023-10-13T12:12:32;7.80;;;4.22;;
31764;SDS011;18338;53.240;8.798;2023-10-13T12:15:07;8.05;;;4.45;;
31764;SDS011;18338;53.240;8.798;2023-10-13T12:17:51;6.65;;;3.80;;
31764;SDS011;18338;53.240;8.798;2023-10-13T12:20:18;10.15;;;4.10;;
31764;SDS011;18338;53.240;8.798;2023-10-13T12:22:59;6.38;;;3.80;;
31764;SDS011;18338;53.240;8.798;2023-10-13T12:25:37;8.15;;;3.85;;
31764;SDS011;18338;53.240;8.798;2023-10-13T12:28:23;8.90;;;4.15;;
31764;SDS011;18338;53.240;8.798;2023-10-13T12:30:54;8.55;;;4.50;;
31764;SDS011;18338;53.240;8.798;2023-10-13T12:33:24;8.57;;;4.35;;
31764;SDS011;18338;53.240;8.798;2023-10-13T12:35:55;8.18;;;3.75;;
31764;SDS011;18338;53.240;8.798;2023-10-13T12:38:53;8.30;;;3.47;;
31764;SDS011;18338;53.240;8.798;2023-10-13T12:41:35;7.78;;;3.95;;
31764;SDS011;18338;53.240;8.798;2023-10-13T12:44:20;8.00;;;4.05;;
31764;SDS011;18338;53.240;8.798;2023-10-13T12:47:06;6.40;;;3.72;;
31764;SDS011;18338;53.240;8.798;2023-10-13T12:49:52;6.80;;;3.70;;
31764;SDS011;18338;53.240;8.798;2023-10-13T12:52:24;10.95;;;3.95;;
31764;SDS011;18338;53.240;8.798;2023-10-13T12:54:52;7.60;;;3.85;;
31764;SDS011;18338;53.240;8.798;2023-10-13T12:57:26;6.78;;;3.60;;
31764;SDS011;18338;53.240;8.798;2023-10-13T12:59:54;9.88;;;4.05;;
31764;SDS011;18338;53.240;8.798;2023-10-13T13:02:21;10.27;;;4.32;;
31764;SDS011;18338;53.240;8.798;2023-10-13T13:04:55;7.32;;;4.25;;
31764;SDS011;18338;53.240;8.798;2023-10-13T13:07:32;9.55;;;4.30;;
31764;SDS011;18338;53.240;8.798;2023-10-13T13:10:10;8.93;;;4.10;;
31764;SDS011;18338;53.240;8.798;2023-10-13T13:12:38;7.70;;;3.90;;
31764;SDS011;18338;53.240;8.798;2023-10-13T13:15:05;7.03;;;4.03;;
31764;SDS011;18338;53.240;8.798;2023-10-13T13:17:35;9.52;;;4.40;;
31764;SDS011;18338;53.240;8.798;2023-10-13T13:20:03;7.53;;;4.28;;
31764;SDS011;18338;53.240;8.798;2023-10-13T13:22:37;8.25;;;3.95;;
31764;SDS011;18338;53.240;8.798;2023-10-13T13:25:05;10.48;;;4.47;;
31764;SDS011;18338;53.240;8.798;2023-10-13T13:27:37;11.65;;;4.70;;
31764;SDS011;18338;53.240;8.798;2023-10-13T13:30:18;11.32;;;5.10;;
31764;SDS011;18338;53.240;8.798;2023-10-13T13:33:06;6.53;;;4.22;;
31764;SDS011;18338;53.240;8.798;2023-10-13T13:35:39;7.57;;;4.85;;
31764;SDS011;18338;53.240;8.798;2023-10-13T13:38:09;9.02;;;4.85;;
31764;SDS011;18338;53.240;8.798;2023-10-13T13:40:37;8.95;;;5.30;;
31764;SDS011;18338;53.240;8.798;2023-10-13T13:43:04;9.32;;;4.80;;
31764;SDS011;18338;53.240;8.798;2023-10-13T13:45:33;9.32;;;4.45;;
31764;SDS011;18338;53.240;8.798;2023-10-13T13:48:01;9.27;;;5.25;;
31764;SDS011;18338;53.240;8.798;2023-10-13T13:50:37;9.63;;;5.10;;
31764;SDS011;18338;53.240;8.798;2023-10-13T13:53:07;7.72;;;5.00;;
31764;SDS011;18338;53.240;8.798;2023-10-13T13:55:36;7.60;;;4.28;;
31764;SDS011;18338;53.240;8.798;2023-10-13T13:58:06;9.60;;;4.93;;
31764;SDS011;18338;53.240;8.798;2023-10-13T14:00:35;8.45;;;4.68;;
31764;SDS011;18338;53.240;8.798;2023-10-13T14:03:07;12.38;;;4.53;;
31764;SDS011;18338;53.240;8.798;2023-10-13T14:05:42;10.05;;;5.57;;
31764;SDS011;18338;53.240;8.798;2023-10-13T14:08:09;11.32;;;4.72;;
31764;SDS011;18338;53.240;8.798;2023-10-13T14:10:41;9.98;;;4.60;;
31764;SDS011;18338;53.240;8.798;2023-10-13T14:13:26;9.65;;;5.30;;
31764;SDS011;18338;53.240;8.798;2023-10-13T14:16:13;10.10;;;4.35;;
31764;SDS011;18338;53.240;8.798;2023-10-13T14:18:46;7.35;;;4.03;;
31764;SDS011;18338;53.240;8.798;2023-10-13T14:21:14;8.77;;;4.05;;
31764;SDS011;18338;53.240;8.798;2023-10-13T14:23:48;12.38;;;4.63;;
31764;SDS011;18338;53.240;8.798;2023-10-13T14:26:18;9.85;;;4.68;;
31764;SDS011;18338;53.240;8.798;2023-10-13T14:28:51;9.80;;;4.32;;
31764;SDS011;18338;53.240;8.798;2023-10-13T14:31:27;7.22;;;4.40;;
31764;SDS011;18338;53.240;8.798;2023-10-13T14:33:54;9.10;;;4.65;;
31764;SDS011;18338;53.240;8.798;2023-10-13T14:36:21;10.02;;;4.22;;
31764;SDS011;18338;53.240;8.798;2023-10-13T14:38:48;11.57;;;5.00;;
31764;SDS011;18338;53.240;8.798;2023-10-13T14:41:18;8.05;;;4.70;;
31764;SDS011;18338;53.240;8.798;2023-10-13T14:43:45;10.63;;;5.15;;
31764;SDS011;18338;53.240;8.798;2023-10-13T14:46:19;13.77;;;6.03;;
31764;SDS011;18338;53.240;8.798;2023-10-13T14:48:53;13.10;;;5.07;;
31764;SDS011;18338;53.240;8.798;2023-10-13T14:51:20;8.30;;;4.38;;
31764;SDS011;18338;53.240;8.798;2023-10-13T14:53:47;10.43;;;4.00;;
31764;SDS011;18338;53.240;8.798;2023-10-13T14:56:18;7.25;;;4.72;;
31764;SDS011;18338;53.240;8.798;2023-10-13T14:58:45;10.07;;;4.43;;
31764;SDS011;18338;53.240;8.798;2023-10-13T15:01:16;9.98;;;4.78;;
31764;SDS011;18338;53.240;8.798;2023-10-13T15:03:44;8.10;;;4.40;;
31764;SDS011;18338;53.240;8.798;2023-10-13T15:06:18;11.05;;;5.00;;
31764;SDS011;18338;53.240;8.798;2023-10-13T15:08:56;8.60;;;4.15;;
31764;SDS011;18338;53.240;8.798;2023-10-13T15:11:24;10.93;;;4.60;;
31764;SDS011;18338;53.240;8.798;2023-10-13T15:13:53;9.60;;;5.25;;
31764;SDS011;18338;53.240;8.798;2023-10-13T15:16:23;9.27;;;4.78;;
31764;SDS011;18338;53.240;8.798;2023-10-13T15:18:53;9.52;;;4.45;;
31764;SDS011;18338;53.240;8.798;2023-10-13T15:21:24;11.50;;;4.95;;
31764;SDS011;18338;53.240;8.798;2023-10-13T15:23:54;9.07;;;5.07;;
31764;SDS011;18338;53.240;8.798;2023-10-13T15:26:30;7.07;;;5.00;;
31764;SDS011;18338;53.240;8.798;2023-10-13T15:29:00;7.53;;;4.30;;
31764;SDS011;18338;53.240;8.798;2023-10-13T15:31:27;11.00;;;5.13;;
31764;SDS011;18338;53.240;8.798;2023-10-13T15:34:00;8.35;;;4.88;;
31764;SDS011;18338;53.240;8.798;2023-10-13T15:36:39;9.48;;;4.75;;
31764;SDS011;18338;53.240;8.798;2023-10-13T15:39:09;6.85;;;3.95;;